createdAt,value
2023-03-03T00:00:58.660Z,5.57
2023-03-03T00:03:27.428Z,5.56
2023-03-03T00:05:54.475Z,5.56
2023-03-03T00:08:22.845Z,5.55
2023-03-03T00:10:50.135Z,5.57
2023-03-03T00:13:26.457Z,5.57
2023-03-03T00:15:54.746Z,5.57
2023-03-03T00:18:33.482Z,5.56
2023-03-03T00:21:02.074Z,5.59
2023-03-03T00:23:31.157Z,5.59
2023-03-03T00:25:59.697Z,5.61
2023-03-03T00:28:32.554Z,5.62
2023-03-03T00:31:01.792Z,5.63
2023-03-03T00:33:34.683Z,5.64
2023-03-03T00:36:37.148Z,5.65
2023-03-03T00:39:28.710Z,5.65
2023-03-03T00:41:57.322Z,5.66
2023-03-03T00:44:47.832Z,5.66
2023-03-03T00:47:28.755Z,5.64
2023-03-03T00:50:12.278Z,5.64
2023-03-03T00:52:52.349Z,5.62
2023-03-03T00:55:19.188Z,5.62
2023-03-03T00:57:46.092Z,5.63
2023-03-03T01:00:14.072Z,5.60
2023-03-03T01:02:40.977Z,5.55
2023-03-03T01:05:16.672Z,5.53
2023-03-03T01:07:43.578Z,5.49
2023-03-03T01:10:11.399Z,5.46
2023-03-03T01:12:38.828Z,5.45
2023-03-03T01:15:08.371Z,5.42
2023-03-03T01:17:35.426Z,5.41
2023-03-03T01:20:03.757Z,5.42
2023-03-03T01:22:30.586Z,5.38
2023-03-03T01:24:59.239Z,5.38
2023-03-03T01:27:28.640Z,5.38
2023-03-03T01:29:56.691Z,5.39
2023-03-03T01:32:27.835Z,5.41
2023-03-03T01:34:55.619Z,5.45
2023-03-03T01:37:22.842Z,5.47
2023-03-03T01:39:54.368Z,5.49
2023-03-03T01:42:22.214Z,5.51
2023-03-03T01:44:49.580Z,5.52
2023-03-03T01:47:24.477Z,5.50
2023-03-03T01:49:54.041Z,5.51
2023-03-03T01:52:30.226Z,5.49
2023-03-03T01:55:02.840Z,5.50
2023-03-03T01:57:39.517Z,5.51
2023-03-03T02:00:07.829Z,5.50
2023-03-03T02:02:44.929Z,5.50
2023-03-03T02:05:13.736Z,5.53
2023-03-03T02:07:41.105Z,5.53
2023-03-03T02:10:16.769Z,5.53
2023-03-03T02:13:01.425Z,5.51
2023-03-03T02:15:29.799Z,5.50
2023-03-03T02:18:04.399Z,5.48
2023-03-03T02:20:53.715Z,5.47
2023-03-03T02:23:48.144Z,5.43
2023-03-03T02:26:16.215Z,5.40
2023-03-03T02:28:43.436Z,5.32
2023-03-03T02:31:15.933Z,5.32
2023-03-03T02:33:47.582Z,5.27
2023-03-03T02:36:17.604Z,5.25
2023-03-03T02:38:59.444Z,5.24
2023-03-03T02:41:45.392Z,5.25
2023-03-03T02:44:19.369Z,5.26
2023-03-03T02:46:49.120Z,5.26
2023-03-03T02:49:21.889Z,5.26
2023-03-03T02:51:49.014Z,5.31
2023-03-03T02:54:18.613Z,5.31
2023-03-03T02:56:46.151Z,5.31
2023-03-03T02:59:13.479Z,5.33
2023-03-03T03:01:46.339Z,5.35
2023-03-03T03:04:19.412Z,5.35
2023-03-03T03:06:49.288Z,5.35
2023-03-03T03:09:18.686Z,5.37
2023-03-03T03:11:46.926Z,5.39
2023-03-03T03:14:15.929Z,5.40
2023-03-03T03:16:43.984Z,5.42
2023-03-03T03:19:11.398Z,5.42
2023-03-03T03:21:39.086Z,5.46
2023-03-03T03:24:07.636Z,5.46
2023-03-03T03:26:36.241Z,5.45
2023-03-03T03:29:03.624Z,5.48
2023-03-03T03:31:31.270Z,5.49
2023-03-03T03:33:58.101Z,5.50
2023-03-03T03:36:24.901Z,5.46
2023-03-03T03:38:52.421Z,5.45
2023-03-03T03:41:19.337Z,5.41
2023-03-03T03:43:46.334Z,5.36
2023-03-03T03:46:14.375Z,5.28
2023-03-03T03:48:41.189Z,5.24
2023-03-03T03:51:12.296Z,5.21
2023-03-03T03:53:40.501Z,5.17
2023-03-03T03:56:07.980Z,5.15
2023-03-03T03:58:34.960Z,5.12
2023-03-03T04:01:06.660Z,5.11
2023-03-03T04:03:36.957Z,5.12
2023-03-03T04:06:07.521Z,5.12
2023-03-03T04:08:34.796Z,5.13
2023-03-03T04:11:02.154Z,5.13
2023-03-03T04:13:32.044Z,5.13
2023-03-03T04:16:00.278Z,5.13
2023-03-03T04:18:27.190Z,5.17
2023-03-03T04:20:54.865Z,5.18
2023-03-03T04:23:22.036Z,5.17
2023-03-03T04:25:49.860Z,5.20
2023-03-03T04:28:18.084Z,5.23
2023-03-03T04:30:46.015Z,5.23
2023-03-03T04:33:16.172Z,5.24
2023-03-03T04:35:43.002Z,5.27
2023-03-03T04:38:09.858Z,5.27
2023-03-03T04:40:37.300Z,5.27
2023-03-03T04:43:04.347Z,5.28
2023-03-03T04:45:31.530Z,5.31
2023-03-03T04:47:58.730Z,5.32
2023-03-03T04:50:25.646Z,5.33
2023-03-03T04:52:53.910Z,5.35
2023-03-03T04:55:21.260Z,5.35
2023-03-03T04:57:48.851Z,5.37
2023-03-03T05:00:16.157Z,5.37
2023-03-03T05:02:43.584Z,5.37
2023-03-03T05:05:11.285Z,5.36
2023-03-03T05:07:38.063Z,5.36
2023-03-03T05:10:05.525Z,5.36
2023-03-03T05:12:32.573Z,5.34
2023-03-03T05:14:59.984Z,5.35
2023-03-03T05:17:26.917Z,5.36
2023-03-03T05:19:54.247Z,5.36
2023-03-03T05:22:21.067Z,5.31
2023-03-03T05:24:49.651Z,5.23
2023-03-03T05:27:16.985Z,5.18
2023-03-03T05:29:44.566Z,5.12
2023-03-03T05:32:11.632Z,5.11
2023-03-03T05:34:38.921Z,5.09
2023-03-03T05:37:06.810Z,5.07
2023-03-03T05:39:34.580Z,5.07
2023-03-03T05:42:01.850Z,5.10
2023-03-03T05:44:28.727Z,5.10
2023-03-03T05:46:57.764Z,5.10
2023-03-03T05:49:25.520Z,5.12
2023-03-03T05:51:52.408Z,5.17
2023-03-03T05:54:19.396Z,5.23
2023-03-03T05:56:46.296Z,5.27
2023-03-03T05:59:13.154Z,5.28
2023-03-03T06:01:40.065Z,5.28
2023-03-03T06:04:06.849Z,5.31
2023-03-03T06:06:33.714Z,5.32
2023-03-03T06:09:00.552Z,5.32
2023-03-03T06:11:27.382Z,5.33
2023-03-03T06:13:54.216Z,5.32
2023-03-03T06:16:21.154Z,5.33
2023-03-03T06:18:47.935Z,5.35
2023-03-03T06:21:14.764Z,5.38
2023-03-03T06:23:41.721Z,5.41
2023-03-03T06:26:08.624Z,5.43
2023-03-03T06:28:35.439Z,5.48
2023-03-03T06:31:02.258Z,5.50
2023-03-03T06:33:29.003Z,5.52
2023-03-03T06:35:56.043Z,5.57
2023-03-03T06:38:22.954Z,5.61
2023-03-03T06:40:49.800Z,5.59
2023-03-03T06:43:16.658Z,5.61
2023-03-03T06:45:46.074Z,5.63
2023-03-03T06:48:12.820Z,5.64
2023-03-03T06:50:39.718Z,5.59
2023-03-03T06:53:14.324Z,5.55
2023-03-03T06:55:44.658Z,5.56
2023-03-03T06:58:16.819Z,5.57
2023-03-03T07:00:53.637Z,5.61
2023-03-03T07:03:25.526Z,5.61
2023-03-03T07:05:53.675Z,5.66
2023-03-03T07:08:22.942Z,5.71
2023-03-03T07:10:51.596Z,5.76
2023-03-03T07:13:27.554Z,5.79
2023-03-03T07:15:56.587Z,5.82
2023-03-03T07:18:45.667Z,5.87
2023-03-03T07:21:22.755Z,5.97
2023-03-03T07:23:52.128Z,6.04
2023-03-03T07:26:34.417Z,6.07
2023-03-03T07:29:15.980Z,6.15
2023-03-03T07:31:47.573Z,6.29
2023-03-03T07:34:29.334Z,6.38
2023-03-03T07:37:01.728Z,6.44
2023-03-03T07:39:34.459Z,6.49
2023-03-03T07:42:12.984Z,6.49
2023-03-03T07:44:40.231Z,6.50
2023-03-03T07:47:19.512Z,6.55
2023-03-03T07:49:49.715Z,6.59
2023-03-03T07:52:31.163Z,6.58
2023-03-03T07:55:02.300Z,6.63
2023-03-03T07:57:40.020Z,6.66
2023-03-03T08:00:18.929Z,6.67
2023-03-03T08:03:17.746Z,6.72
2023-03-03T08:05:48.104Z,6.73
2023-03-03T08:08:31.287Z,6.76
2023-03-03T08:11:00.369Z,6.80
2023-03-03T08:13:33.313Z,6.88
2023-03-03T08:16:04.232Z,6.89
2023-03-03T08:18:36.839Z,6.96
2023-03-03T08:21:13.556Z,7.01
2023-03-03T08:23:40.582Z,7.04
2023-03-03T08:26:08.268Z,7.07
2023-03-03T08:28:35.314Z,7.09
2023-03-03T08:31:16.835Z,7.16
2023-03-03T08:33:49.125Z,7.25
2023-03-03T08:36:15.959Z,7.32
2023-03-03T08:38:42.722Z,7.40
2023-03-03T08:41:09.611Z,7.52
2023-03-03T08:43:36.552Z,7.62
2023-03-03T08:46:06.032Z,7.71
2023-03-03T08:48:33.840Z,7.77
2023-03-03T08:51:00.626Z,7.87
2023-03-03T08:53:28.082Z,7.91
2023-03-03T08:55:54.965Z,7.96
2023-03-03T08:58:33.607Z,7.99
2023-03-03T09:01:01.723Z,8.08
2023-03-03T09:03:28.666Z,8.16
2023-03-03T09:05:55.492Z,8.18
2023-03-03T09:08:22.323Z,8.27
2023-03-03T09:10:49.127Z,8.34
2023-03-03T09:13:19.129Z,8.43
2023-03-03T09:15:47.624Z,8.43
2023-03-03T09:18:41.140Z,8.48
2023-03-03T09:21:27.032Z,8.61
2023-03-03T09:23:56.802Z,8.79
2023-03-03T09:26:46.374Z,9.15
2023-03-03T09:29:16.183Z,9.52
2023-03-03T09:31:49.654Z,9.91
2023-03-03T09:34:21.120Z,10.38
2023-03-03T09:36:49.605Z,10.81
2023-03-03T09:39:24.126Z,11.29
2023-03-03T09:42:11.642Z,11.63
2023-03-03T09:44:56.305Z,11.94
2023-03-03T09:47:41.421Z,12.23
2023-03-03T09:50:31.627Z,12.55
2023-03-03T09:53:11.582Z,12.91
2023-03-03T09:55:57.002Z,13.20
2023-03-03T09:58:46.235Z,13.31
2023-03-03T10:01:36.752Z,13.36
2023-03-03T10:04:10.102Z,13.30
2023-03-03T10:06:39.688Z,13.26
2023-03-03T10:09:31.005Z,13.44
2023-03-03T10:12:06.615Z,13.55
2023-03-03T10:15:25.610Z,13.63
2023-03-03T10:18:24.480Z,13.80
2023-03-03T10:21:17.370Z,14.10
2023-03-03T10:23:59.058Z,14.12
2023-03-03T10:27:13.508Z,14.33
2023-03-03T10:30:14.659Z,14.48
2023-03-03T10:32:51.783Z,14.62
2023-03-03T10:35:40.158Z,14.48
2023-03-03T10:38:28.277Z,14.60
2023-03-03T10:41:16.040Z,14.63
2023-03-03T10:43:51.846Z,14.77
2023-03-03T10:46:44.504Z,15.01
2023-03-03T10:49:17.786Z,15.07
2023-03-03T10:52:08.969Z,15.21
2023-03-03T10:54:51.010Z,15.36
2023-03-03T10:57:30.370Z,15.10
2023-03-03T11:00:15.795Z,14.94
2023-03-03T11:03:02.914Z,15.18
2023-03-03T11:05:48.348Z,14.99
2023-03-03T11:08:30.041Z,15.03
2023-03-03T11:11:24.285Z,15.13
2023-03-03T11:14:02.280Z,15.27
2023-03-03T11:17:04.540Z,15.34
2023-03-03T11:20:06.859Z,15.60
2023-03-03T11:22:54.952Z,15.70
2023-03-03T11:25:26.361Z,15.74
2023-03-03T11:27:58.734Z,15.85
2023-03-03T11:30:34.358Z,15.88
2023-03-03T11:33:09.861Z,15.90
2023-03-03T11:35:48.511Z,15.85
2023-03-03T11:38:53.844Z,15.69
2023-03-03T11:41:47.984Z,15.70
2023-03-03T11:44:25.338Z,15.84
2023-03-03T11:47:00.314Z,15.99
2023-03-03T11:49:43.575Z,16.17
2023-03-03T11:52:22.485Z,16.20
2023-03-03T11:55:00.859Z,16.07
2023-03-03T11:57:53.621Z,16.06
2023-03-03T12:00:44.749Z,16.00
2023-03-03T12:03:21.496Z,15.91
2023-03-03T12:06:38.390Z,15.84
2023-03-03T12:09:13.889Z,15.62
2023-03-03T12:11:56.589Z,15.47
2023-03-03T12:14:29.373Z,15.46
2023-03-03T12:17:27.362Z,15.33
2023-03-03T12:20:06.057Z,15.33
2023-03-03T12:23:06.968Z,15.24
2023-03-03T12:26:03.727Z,15.19
2023-03-03T12:28:51.964Z,15.14
2023-03-03T12:31:27.481Z,15.24
2023-03-03T12:34:23.351Z,15.22
2023-03-03T12:36:58.584Z,15.30
2023-03-03T12:39:35.473Z,15.17
2023-03-03T12:42:38.367Z,14.92
2023-03-03T12:45:35.715Z,14.67
2023-03-03T12:48:09.982Z,14.38
2023-03-03T12:51:02.512Z,14.20
2023-03-03T12:53:53.988Z,13.93
2023-03-03T12:56:38.994Z,13.73
2023-03-03T12:59:11.608Z,13.50
2023-03-03T13:01:48.700Z,13.39
2023-03-03T13:04:27.249Z,13.27
2023-03-03T13:07:06.319Z,13.01
2023-03-03T13:09:53.921Z,12.97
2023-03-03T13:13:09.803Z,12.86
2023-03-03T13:15:56.066Z,12.71
2023-03-03T13:18:37.601Z,12.80
2023-03-03T13:21:21.238Z,12.99
2023-03-03T13:24:06.144Z,13.08
2023-03-03T13:26:50.984Z,13.10
2023-03-03T13:29:35.402Z,13.19
2023-03-03T13:32:15.434Z,13.23
2023-03-03T13:35:12.055Z,13.23
2023-03-03T13:37:46.774Z,13.12
2023-03-03T13:40:13.670Z,13.27
2023-03-03T13:42:47.477Z,13.30
2023-03-03T13:45:50.361Z,13.18
2023-03-03T13:48:38.691Z,12.84
2023-03-03T13:51:21.993Z,12.61
2023-03-03T13:54:04.885Z,12.49
2023-03-03T13:56:48.293Z,12.30
2023-03-03T13:59:36.097Z,12.18
2023-03-03T14:02:28.805Z,12.00
2023-03-03T14:05:12.562Z,11.84
2023-03-03T14:07:49.934Z,11.82
2023-03-03T14:10:30.174Z,11.81
2023-03-03T14:13:03.611Z,11.82
2023-03-03T14:15:41.268Z,11.67
2023-03-03T14:18:33.213Z,11.57
2023-03-03T14:21:22.951Z,11.41
2023-03-03T14:24:05.275Z,11.46
2023-03-03T14:26:45.002Z,11.47
2023-03-03T14:29:28.434Z,11.49
2023-03-03T14:32:01.658Z,11.43
2023-03-03T14:34:40.002Z,11.47
2023-03-03T14:37:44.111Z,11.49
2023-03-03T14:40:23.033Z,11.49
2023-03-03T14:42:52.485Z,11.46
2023-03-03T14:45:31.549Z,11.41
2023-03-03T14:48:00.292Z,11.37
2023-03-03T14:50:42.231Z,11.26
2023-03-03T14:53:21.102Z,11.16
2023-03-03T14:55:50.690Z,11.09
2023-03-03T14:58:30.962Z,10.98
2023-03-03T15:01:31.493Z,10.89
2023-03-03T15:04:16.710Z,10.78
2023-03-03T15:06:47.815Z,10.69
2023-03-03T15:09:38.356Z,10.57
2023-03-03T15:12:38.199Z,10.44
2023-03-03T15:15:11.323Z,10.34
2023-03-03T15:17:50.514Z,10.23
2023-03-03T15:20:22.996Z,10.14
2023-03-03T15:22:53.654Z,10.09
2023-03-03T15:25:54.711Z,10.03
2023-03-03T15:28:27.631Z,10.00
2023-03-03T15:31:17.386Z,9.94
2023-03-03T15:33:58.950Z,9.93
2023-03-03T15:36:34.781Z,9.90
2023-03-03T15:39:13.432Z,9.88
2023-03-03T15:42:11.995Z,9.85
2023-03-03T15:44:45.284Z,9.81
2023-03-03T15:47:24.381Z,9.77
2023-03-03T15:50:20.914Z,9.72
2023-03-03T15:53:03.167Z,9.67
2023-03-03T15:55:38.781Z,9.59
2023-03-03T15:58:26.542Z,9.51
2023-03-03T16:01:11.755Z,9.45
2023-03-03T16:03:46.544Z,9.39
2023-03-03T16:06:28.578Z,9.31
2023-03-03T16:09:10.598Z,9.25
2023-03-03T16:12:26.235Z,9.18
2023-03-03T16:14:58.683Z,9.11
2023-03-03T16:17:44.042Z,9.04
2023-03-03T16:20:33.446Z,9.01
2023-03-03T16:23:20.133Z,8.97
2023-03-03T16:26:14.480Z,8.97
2023-03-03T16:28:49.600Z,8.96
2023-03-03T16:31:40.957Z,8.94
2023-03-03T16:34:24.535Z,8.91
2023-03-03T16:37:01.656Z,8.88
2023-03-03T16:39:52.243Z,8.86
2023-03-03T16:42:30.726Z,8.79
2023-03-03T16:45:21.150Z,8.75
2023-03-03T16:48:05.991Z,8.70
2023-03-03T16:50:50.524Z,8.63
2023-03-03T16:53:45.093Z,8.55
2023-03-03T16:56:40.793Z,8.43
2023-03-03T16:59:38.916Z,8.27
2023-03-03T17:02:22.495Z,8.18
2023-03-03T17:05:00.728Z,8.12
2023-03-03T17:07:43.623Z,8.04
2023-03-03T17:10:37.671Z,7.98
2023-03-03T17:13:05.163Z,7.94
2023-03-03T17:15:39.625Z,7.92
2023-03-03T17:18:33.141Z,7.90
2023-03-03T17:21:02.839Z,7.86
2023-03-03T17:24:13.990Z,7.83
2023-03-03T17:26:46.459Z,7.83
2023-03-03T17:29:28.343Z,7.81
2023-03-03T17:32:25.013Z,7.78
2023-03-03T17:35:36.036Z,7.77
2023-03-03T17:38:49.405Z,7.75
2023-03-03T17:41:27.382Z,7.75
2023-03-03T17:44:11.886Z,7.74
2023-03-03T17:46:51.632Z,7.74
2023-03-03T17:49:54.505Z,7.74
2023-03-03T17:52:30.008Z,7.75
2023-03-03T17:55:17.648Z,7.75
2023-03-03T17:57:53.603Z,7.76
2023-03-03T18:00:30.528Z,7.75
2023-03-03T18:03:10.456Z,7.68
2023-03-03T18:06:05.373Z,7.70
2023-03-03T18:08:44.550Z,7.70
2023-03-03T18:11:33.031Z,7.70
2023-03-03T18:14:38.555Z,7.64
2023-03-03T18:17:26.759Z,7.60
2023-03-03T18:20:14.353Z,7.58
2023-03-03T18:22:52.140Z,7.55
2023-03-03T18:25:40.262Z,7.54
2023-03-03T18:28:07.159Z,7.52
2023-03-03T18:30:55.389Z,7.48
2023-03-03T18:33:44.133Z,7.45
2023-03-03T18:36:36.383Z,7.45
2023-03-03T18:39:05.401Z,7.43
2023-03-03T18:41:53.490Z,7.44
2023-03-03T18:44:30.899Z,7.42
2023-03-03T18:46:58.985Z,7.43
2023-03-03T18:49:48.860Z,7.41
2023-03-03T18:52:18.480Z,7.40
2023-03-03T18:55:03.868Z,7.38
2023-03-03T18:57:30.933Z,7.35
2023-03-03T19:00:15.571Z,7.35
2023-03-03T19:02:55.576Z,7.34
2023-03-03T19:05:46.750Z,7.32
2023-03-03T19:08:23.609Z,7.32
2023-03-03T19:10:57.714Z,7.30
2023-03-03T19:13:33.381Z,7.29
2023-03-03T19:16:09.480Z,7.28
2023-03-03T19:18:42.528Z,7.28
2023-03-03T19:21:12.367Z,7.28
2023-03-03T19:24:23.996Z,7.27
2023-03-03T19:27:12.742Z,7.31
2023-03-03T19:29:42.540Z,7.31
2023-03-03T19:32:15.282Z,7.31
2023-03-03T19:35:00.346Z,7.28
2023-03-03T19:37:58.243Z,7.24
2023-03-03T19:40:56.752Z,7.24
2023-03-03T19:43:45.198Z,7.22
2023-03-03T19:46:23.772Z,7.19
2023-03-03T19:49:04.879Z,7.19
2023-03-03T19:51:49.588Z,7.16
2023-03-03T19:54:44.125Z,7.14
2023-03-03T19:57:34.958Z,7.13
2023-03-03T20:00:43.061Z,7.09
2023-03-03T20:03:30.779Z,7.07
2023-03-03T20:06:31.666Z,7.03
2023-03-03T20:09:04.465Z,7.00
2023-03-03T20:11:46.350Z,6.96
2023-03-03T20:14:46.124Z,6.95
2023-03-03T20:17:32.149Z,6.95
2023-03-03T20:20:17.807Z,6.93
2023-03-03T20:23:00.430Z,6.90
2023-03-03T20:26:16.595Z,6.90
2023-03-03T20:29:10.796Z,6.89
2023-03-03T20:31:49.427Z,6.87
2023-03-03T20:34:36.511Z,6.86
2023-03-03T20:37:35.083Z,6.86
2023-03-03T20:40:13.875Z,6.86
2023-03-03T20:42:58.236Z,6.87
2023-03-03T20:45:57.429Z,6.88
2023-03-03T20:48:36.729Z,6.87
2023-03-03T20:51:21.946Z,6.88
2023-03-03T20:53:59.948Z,6.87
2023-03-03T20:56:51.526Z,6.87
2023-03-03T20:59:24.288Z,6.90
2023-03-03T21:02:30.740Z,6.93
2023-03-03T21:05:15.919Z,6.95
2023-03-03T21:08:03.404Z,6.97
2023-03-03T21:10:33.931Z,6.91
2023-03-03T21:13:29.576Z,6.87
2023-03-03T21:16:03.167Z,6.82
2023-03-03T21:18:30.120Z,6.79
2023-03-03T21:20:56.905Z,6.80
2023-03-03T21:23:23.848Z,6.80
2023-03-03T21:25:52.926Z,6.82
2023-03-03T21:28:24.362Z,6.84
2023-03-03T21:31:11.480Z,6.84
2023-03-03T21:33:54.604Z,6.85
2023-03-03T21:36:44.993Z,6.85
2023-03-03T21:39:24.104Z,6.81
2023-03-03T21:41:56.915Z,6.79
2023-03-03T21:44:49.752Z,6.74
2023-03-03T21:47:27.428Z,6.71
2023-03-03T21:49:54.351Z,6.69
2023-03-03T21:52:22.431Z,6.69
2023-03-03T21:54:51.119Z,6.69
2023-03-03T21:57:18.865Z,6.70
2023-03-03T21:59:45.783Z,6.70
2023-03-03T22:02:12.765Z,6.72
2023-03-03T22:04:39.683Z,6.74
2023-03-03T22:07:06.856Z,6.73
2023-03-03T22:09:34.614Z,6.74
2023-03-03T22:12:01.430Z,6.74
2023-03-03T22:14:28.409Z,6.74
2023-03-03T22:16:55.228Z,6.74
2023-03-03T22:19:22.172Z,6.73
2023-03-03T22:21:50.252Z,6.72
2023-03-03T22:24:18.617Z,6.72
2023-03-03T22:26:45.490Z,6.73
2023-03-03T22:29:12.318Z,6.73
2023-03-03T22:31:39.254Z,6.70
2023-03-03T22:34:06.440Z,6.70
2023-03-03T22:36:33.345Z,6.68
2023-03-03T22:39:01.068Z,6.68
2023-03-03T22:41:28.144Z,6.66
2023-03-03T22:43:54.927Z,6.63
2023-03-03T22:46:21.834Z,6.61
2023-03-03T22:48:48.656Z,6.60
2023-03-03T22:51:15.463Z,6.59
2023-03-03T22:53:42.353Z,6.58
2023-03-03T22:56:09.157Z,6.58
2023-03-03T22:58:35.930Z,6.57
2023-03-03T23:01:03.521Z,6.56
2023-03-03T23:03:32.397Z,6.54
2023-03-03T23:05:59.544Z,6.54
2023-03-03T23:08:27.599Z,6.51
2023-03-03T23:10:54.525Z,6.50
2023-03-03T23:13:21.372Z,6.48
2023-03-03T23:15:48.304Z,6.48
2023-03-03T23:18:15.115Z,6.44
2023-03-03T23:20:45.815Z,6.43
2023-03-03T23:23:12.710Z,6.42
2023-03-03T23:25:39.576Z,6.38
2023-03-03T23:28:06.562Z,6.36
2023-03-03T23:30:33.507Z,6.35
2023-03-03T23:33:00.231Z,6.33
2023-03-03T23:35:27.014Z,6.31
2023-03-03T23:37:53.844Z,6.30
2023-03-03T23:40:20.738Z,6.28
2023-03-03T23:42:47.597Z,6.28
2023-03-03T23:45:14.449Z,6.27
2023-03-03T23:47:41.686Z,6.30
2023-03-03T23:50:10.928Z,6.30
2023-03-03T23:52:37.818Z,6.30
2023-03-03T23:55:05.716Z,6.30
2023-03-03T23:57:32.525Z,6.28
2023-03-03T23:59:59.313Z,6.27
